sensor_id;sensor_type;location;lat;lon;timestamp;P1;durP1;ratioP1;P2;durP2;ratioP2
7657;SDS011;8462;53.156;8.220;2023-12-28T00:00:00;5.60;;;2.53;;
7657;SDS011;8462;53.156;8.220;2023-12-28T00:02:29;3.57;;;2.43;;
7657;SDS011;8462;53.156;8.220;2023-12-28T00:04:58;2.80;;;2.27;;
7657;SDS011;8462;53.156;8.220;2023-12-28T00:07:27;3.07;;;2.50;;
7657;SDS011;8462;53.156;8.220;2023-12-28T00:09:55;4.00;;;2.63;;
7657;SDS011;8462;53.156;8.220;2023-12-28T00:12:23;2.73;;;2.47;;
7657;SDS011;8462;53.156;8.220;2023-12-28T00:14:51;3.93;;;2.30;;
7657;SDS011;8462;53.156;8.220;2023-12-28T00:17:20;2.10;;;1.90;;
7657;SDS011;8462;53.156;8.220;2023-12-28T00:19:47;2.67;;;2.17;;
7657;SDS011;8462;53.156;8.220;2023-12-28T00:22:16;4.10;;;2.37;;
7657;SDS011;8462;53.156;8.220;2023-12-28T00:24:45;3.20;;;2.17;;
7657;SDS011;8462;53.156;8.220;2023-12-28T00:27:14;4.67;;;2.33;;
7657;SDS011;8462;53.156;8.220;2023-12-28T00:29:41;3.27;;;2.37;;
7657;SDS011;8462;53.156;8.220;2023-12-28T00:32:11;3.00;;;2.17;;
7657;SDS011;8462;53.156;8.220;2023-12-28T00:34:39;3.60;;;2.17;;
7657;SDS011;8462;53.156;8.220;2023-12-28T00:37:06;3.57;;;2.03;;
7657;SDS011;8462;53.156;8.220;2023-12-28T00:39:42;2.90;;;2.10;;
7657;SDS011;8462;53.156;8.220;2023-12-28T00:42:12;2.63;;;2.10;;
7657;SDS011;8462;53.156;8.220;2023-12-28T00:44:40;4.47;;;2.40;;
7657;SDS011;8462;53.156;8.220;2023-12-28T00:47:08;3.77;;;2.40;;
7657;SDS011;8462;53.156;8.220;2023-12-28T00:49:35;2.40;;;2.10;;
7657;SDS011;8462;53.156;8.220;2023-12-28T00:52:02;2.53;;;2.00;;
7657;SDS011;8462;53.156;8.220;2023-12-28T00:54:29;3.50;;;2.10;;
7657;SDS011;8462;53.156;8.220;2023-12-28T00:56:57;2.67;;;2.17;;
7657;SDS011;8462;53.156;8.220;2023-12-28T00:59:24;4.10;;;2.23;;
7657;SDS011;8462;53.156;8.220;2023-12-28T01:01:52;3.17;;;2.23;;
7657;SDS011;8462;53.156;8.220;2023-12-28T01:04:19;3.07;;;2.20;;
7657;SDS011;8462;53.156;8.220;2023-12-28T01:06:48;3.83;;;2.17;;
7657;SDS011;8462;53.156;8.220;2023-12-28T01:09:15;4.07;;;2.17;;
7657;SDS011;8462;53.156;8.220;2023-12-28T01:11:42;2.27;;;1.83;;
7657;SDS011;8462;53.156;8.220;2023-12-28T01:14:09;2.73;;;2.07;;
7657;SDS011;8462;53.156;8.220;2023-12-28T01:16:36;3.47;;;2.23;;
7657;SDS011;8462;53.156;8.220;2023-12-28T01:19:05;5.37;;;2.50;;
7657;SDS011;8462;53.156;8.220;2023-12-28T01:21:32;4.57;;;2.20;;
7657;SDS011;8462;53.156;8.220;2023-12-28T01:24:03;3.73;;;2.00;;
7657;SDS011;8462;53.156;8.220;2023-12-28T01:26:30;4.00;;;2.33;;
7657;SDS011;8462;53.156;8.220;2023-12-28T01:28:57;3.20;;;2.20;;
7657;SDS011;8462;53.156;8.220;2023-12-28T01:31:27;4.30;;;2.33;;
7657;SDS011;8462;53.156;8.220;2023-12-28T01:33:54;2.30;;;2.10;;
7657;SDS011;8462;53.156;8.220;2023-12-28T01:36:22;3.10;;;2.50;;
7657;SDS011;8462;53.156;8.220;2023-12-28T01:38:49;3.97;;;2.70;;
7657;SDS011;8462;53.156;8.220;2023-12-28T01:41:16;3.00;;;2.40;;
7657;SDS011;8462;53.156;8.220;2023-12-28T01:43:43;2.60;;;2.30;;
7657;SDS011;8462;53.156;8.220;2023-12-28T01:46:13;3.53;;;2.30;;
7657;SDS011;8462;53.156;8.220;2023-12-28T01:48:42;2.60;;;1.90;;
7657;SDS011;8462;53.156;8.220;2023-12-28T01:51:12;3.97;;;2.27;;
7657;SDS011;8462;53.156;8.220;2023-12-28T01:53:42;3.47;;;2.43;;
7657;SDS011;8462;53.156;8.220;2023-12-28T01:56:09;3.40;;;2.50;;
7657;SDS011;8462;53.156;8.220;2023-12-28T01:58:37;3.50;;;2.07;;
7657;SDS011;8462;53.156;8.220;2023-12-28T02:01:05;4.90;;;2.70;;
7657;SDS011;8462;53.156;8.220;2023-12-28T02:03:33;3.67;;;2.33;;
7657;SDS011;8462;53.156;8.220;2023-12-28T02:06:02;2.67;;;2.40;;
7657;SDS011;8462;53.156;8.220;2023-12-28T02:08:31;3.63;;;2.30;;
7657;SDS011;8462;53.156;8.220;2023-12-28T02:11:00;4.13;;;2.70;;
7657;SDS011;8462;53.156;8.220;2023-12-28T02:13:27;2.87;;;2.27;;
7657;SDS011;8462;53.156;8.220;2023-12-28T02:15:55;2.90;;;2.60;;
7657;SDS011;8462;53.156;8.220;2023-12-28T02:18:30;4.17;;;2.47;;
7657;SDS011;8462;53.156;8.220;2023-12-28T02:21:02;2.97;;;2.33;;
7657;SDS011;8462;53.156;8.220;2023-12-28T02:23:31;3.80;;;2.10;;
7657;SDS011;8462;53.156;8.220;2023-12-28T02:26:00;3.63;;;2.20;;
7657;SDS011;8462;53.156;8.220;2023-12-28T02:28:27;4.73;;;2.47;;
7657;SDS011;8462;53.156;8.220;2023-12-28T02:30:54;5.00;;;2.50;;
7657;SDS011;8462;53.156;8.220;2023-12-28T02:33:24;4.63;;;2.60;;
7657;SDS011;8462;53.156;8.220;2023-12-28T02:35:55;5.10;;;2.43;;
7657;SDS011;8462;53.156;8.220;2023-12-28T02:38:25;3.07;;;2.27;;
7657;SDS011;8462;53.156;8.220;2023-12-28T02:40:55;3.33;;;2.20;;
7657;SDS011;8462;53.156;8.220;2023-12-28T02:43:25;7.00;;;3.00;;
7657;SDS011;8462;53.156;8.220;2023-12-28T02:45:52;3.77;;;2.53;;
7657;SDS011;8462;53.156;8.220;2023-12-28T02:48:20;3.17;;;2.57;;
7657;SDS011;8462;53.156;8.220;2023-12-28T02:50:47;4.17;;;2.53;;
7657;SDS011;8462;53.156;8.220;2023-12-28T02:53:14;4.23;;;2.70;;
7657;SDS011;8462;53.156;8.220;2023-12-28T02:55:41;5.37;;;2.53;;
7657;SDS011;8462;53.156;8.220;2023-12-28T02:58:10;4.30;;;2.63;;
7657;SDS011;8462;53.156;8.220;2023-12-28T03:00:38;3.53;;;2.53;;
7657;SDS011;8462;53.156;8.220;2023-12-28T03:03:05;5.33;;;2.70;;
7657;SDS011;8462;53.156;8.220;2023-12-28T03:05:34;4.23;;;2.67;;
7657;SDS011;8462;53.156;8.220;2023-12-28T03:08:01;4.93;;;3.13;;
7657;SDS011;8462;53.156;8.220;2023-12-28T03:10:29;4.87;;;2.83;;
7657;SDS011;8462;53.156;8.220;2023-12-28T03:12:55;4.73;;;2.33;;
7657;SDS011;8462;53.156;8.220;2023-12-28T03:15:23;4.37;;;2.60;;
7657;SDS011;8462;53.156;8.220;2023-12-28T03:17:52;3.87;;;2.43;;
7657;SDS011;8462;53.156;8.220;2023-12-28T03:20:19;5.80;;;2.70;;
7657;SDS011;8462;53.156;8.220;2023-12-28T03:22:46;5.43;;;2.57;;
7657;SDS011;8462;53.156;8.220;2023-12-28T03:25:13;4.00;;;2.43;;
7657;SDS011;8462;53.156;8.220;2023-12-28T03:27:42;4.27;;;2.53;;
7657;SDS011;8462;53.156;8.220;2023-12-28T03:30:09;3.70;;;2.67;;
7657;SDS011;8462;53.156;8.220;2023-12-28T03:32:39;4.60;;;2.60;;
7657;SDS011;8462;53.156;8.220;2023-12-28T03:35:09;3.80;;;2.90;;
7657;SDS011;8462;53.156;8.220;2023-12-28T03:37:36;3.87;;;2.90;;
7657;SDS011;8462;53.156;8.220;2023-12-28T03:40:03;3.10;;;2.40;;
7657;SDS011;8462;53.156;8.220;2023-12-28T03:42:32;3.87;;;2.77;;
7657;SDS011;8462;53.156;8.220;2023-12-28T03:44:58;4.50;;;2.47;;
7657;SDS011;8462;53.156;8.220;2023-12-28T03:47:26;4.33;;;2.70;;
7657;SDS011;8462;53.156;8.220;2023-12-28T03:49:53;3.90;;;2.53;;
7657;SDS011;8462;53.156;8.220;2023-12-28T03:52:23;4.23;;;2.97;;
7657;SDS011;8462;53.156;8.220;2023-12-28T03:54:59;6.57;;;2.97;;
7657;SDS011;8462;53.156;8.220;2023-12-28T03:57:26;4.37;;;2.40;;
7657;SDS011;8462;53.156;8.220;2023-12-28T03:59:53;4.47;;;2.50;;
7657;SDS011;8462;53.156;8.220;2023-12-28T04:02:21;3.53;;;2.50;;
7657;SDS011;8462;53.156;8.220;2023-12-28T04:04:49;4.30;;;2.30;;
7657;SDS011;8462;53.156;8.220;2023-12-28T04:07:18;5.53;;;2.80;;
7657;SDS011;8462;53.156;8.220;2023-12-28T04:09:46;4.03;;;2.80;;
7657;SDS011;8462;53.156;8.220;2023-12-28T04:12:15;3.23;;;2.87;;
7657;SDS011;8462;53.156;8.220;2023-12-28T04:14:42;3.47;;;2.63;;
7657;SDS011;8462;53.156;8.220;2023-12-28T04:17:10;3.60;;;2.60;;
7657;SDS011;8462;53.156;8.220;2023-12-28T04:19:37;5.90;;;3.03;;
7657;SDS011;8462;53.156;8.220;2023-12-28T04:22:04;4.20;;;2.70;;
7657;SDS011;8462;53.156;8.220;2023-12-28T04:24:32;5.87;;;2.67;;
7657;SDS011;8462;53.156;8.220;2023-12-28T04:27:01;3.80;;;2.80;;
7657;SDS011;8462;53.156;8.220;2023-12-28T04:29:28;5.00;;;2.90;;
7657;SDS011;8462;53.156;8.220;2023-12-28T04:31:55;6.27;;;3.00;;
7657;SDS011;8462;53.156;8.220;2023-12-28T04:34:23;3.27;;;2.60;;
7657;SDS011;8462;53.156;8.220;2023-12-28T04:36:51;4.73;;;2.63;;
7657;SDS011;8462;53.156;8.220;2023-12-28T04:39:18;5.30;;;2.90;;
7657;SDS011;8462;53.156;8.220;2023-12-28T04:41:47;5.60;;;2.67;;
7657;SDS011;8462;53.156;8.220;2023-12-28T04:44:16;6.83;;;2.70;;
7657;SDS011;8462;53.156;8.220;2023-12-28T04:46:44;4.10;;;2.70;;
7657;SDS011;8462;53.156;8.220;2023-12-28T04:49:11;3.90;;;2.70;;
7657;SDS011;8462;53.156;8.220;2023-12-28T04:51:41;4.50;;;2.63;;
7657;SDS011;8462;53.156;8.220;2023-12-28T04:54:09;4.03;;;2.60;;
7657;SDS011;8462;53.156;8.220;2023-12-28T04:56:36;4.37;;;2.67;;
7657;SDS011;8462;53.156;8.220;2023-12-28T04:59:03;5.73;;;2.33;;
7657;SDS011;8462;53.156;8.220;2023-12-28T05:01:32;4.10;;;2.80;;
7657;SDS011;8462;53.156;8.220;2023-12-28T05:03:59;5.63;;;3.00;;
7657;SDS011;8462;53.156;8.220;2023-12-28T05:06:27;4.93;;;2.50;;
7657;SDS011;8462;53.156;8.220;2023-12-28T05:08:54;3.60;;;2.50;;
7657;SDS011;8462;53.156;8.220;2023-12-28T05:11:22;5.23;;;2.47;;
7657;SDS011;8462;53.156;8.220;2023-12-28T05:13:49;5.13;;;2.40;;
7657;SDS011;8462;53.156;8.220;2023-12-28T05:16:16;7.83;;;3.07;;
7657;SDS011;8462;53.156;8.220;2023-12-28T05:18:44;4.83;;;2.47;;
7657;SDS011;8462;53.156;8.220;2023-12-28T05:21:11;4.43;;;2.50;;
7657;SDS011;8462;53.156;8.220;2023-12-28T05:23:40;3.73;;;2.50;;
7657;SDS011;8462;53.156;8.220;2023-12-28T05:26:07;4.47;;;2.90;;
7657;SDS011;8462;53.156;8.220;2023-12-28T05:28:34;5.33;;;2.93;;
7657;SDS011;8462;53.156;8.220;2023-12-28T05:31:01;7.77;;;2.40;;
7657;SDS011;8462;53.156;8.220;2023-12-28T05:33:28;5.90;;;2.70;;
7657;SDS011;8462;53.156;8.220;2023-12-28T05:35:56;3.40;;;2.40;;
7657;SDS011;8462;53.156;8.220;2023-12-28T05:38:23;6.97;;;2.53;;
7657;SDS011;8462;53.156;8.220;2023-12-28T05:40:50;7.23;;;2.83;;
7657;SDS011;8462;53.156;8.220;2023-12-28T05:43:17;4.33;;;2.50;;
7657;SDS011;8462;53.156;8.220;2023-12-28T05:45:44;5.93;;;2.40;;
7657;SDS011;8462;53.156;8.220;2023-12-28T05:48:12;4.10;;;2.33;;
7657;SDS011;8462;53.156;8.220;2023-12-28T05:50:39;5.33;;;2.60;;
7657;SDS011;8462;53.156;8.220;2023-12-28T05:53:09;5.43;;;2.77;;
7657;SDS011;8462;53.156;8.220;2023-12-28T05:55:39;4.20;;;1.93;;
7657;SDS011;8462;53.156;8.220;2023-12-28T05:58:07;4.80;;;2.20;;
7657;SDS011;8462;53.156;8.220;2023-12-28T06:00:34;4.87;;;2.53;;
7657;SDS011;8462;53.156;8.220;2023-12-28T06:03:02;5.03;;;2.10;;
7657;SDS011;8462;53.156;8.220;2023-12-28T06:05:30;5.53;;;2.30;;
7657;SDS011;8462;53.156;8.220;2023-12-28T06:07:57;6.67;;;2.33;;
7657;SDS011;8462;53.156;8.220;2023-12-28T06:10:26;5.00;;;2.33;;
7657;SDS011;8462;53.156;8.220;2023-12-28T06:12:53;6.07;;;2.67;;
7657;SDS011;8462;53.156;8.220;2023-12-28T06:15:20;3.37;;;2.17;;
7657;SDS011;8462;53.156;8.220;2023-12-28T06:17:47;3.27;;;2.43;;
7657;SDS011;8462;53.156;8.220;2023-12-28T06:20:14;5.43;;;2.47;;
7657;SDS011;8462;53.156;8.220;2023-12-28T06:22:41;7.17;;;2.30;;
7657;SDS011;8462;53.156;8.220;2023-12-28T06:25:10;3.80;;;2.07;;
7657;SDS011;8462;53.156;8.220;2023-12-28T06:27:39;5.50;;;2.10;;
7657;SDS011;8462;53.156;8.220;2023-12-28T06:30:06;5.50;;;2.20;;
7657;SDS011;8462;53.156;8.220;2023-12-28T06:32:33;9.47;;;2.80;;
7657;SDS011;8462;53.156;8.220;2023-12-28T06:35:01;7.70;;;2.67;;
7657;SDS011;8462;53.156;8.220;2023-12-28T06:37:28;5.77;;;2.47;;
7657;SDS011;8462;53.156;8.220;2023-12-28T06:39:55;7.43;;;3.10;;
7657;SDS011;8462;53.156;8.220;2023-12-28T06:42:22;5.47;;;2.30;;
7657;SDS011;8462;53.156;8.220;2023-12-28T06:44:51;5.47;;;2.50;;
7657;SDS011;8462;53.156;8.220;2023-12-28T06:47:19;5.43;;;2.57;;
7657;SDS011;8462;53.156;8.220;2023-12-28T06:49:46;7.77;;;2.43;;
7657;SDS011;8462;53.156;8.220;2023-12-28T06:52:13;5.77;;;2.67;;
7657;SDS011;8462;53.156;8.220;2023-12-28T06:54:42;4.70;;;2.13;;
7657;SDS011;8462;53.156;8.220;2023-12-28T06:57:09;5.40;;;2.67;;
7657;SDS011;8462;53.156;8.220;2023-12-28T06:59:36;6.67;;;2.57;;
7657;SDS011;8462;53.156;8.220;2023-12-28T07:02:05;9.23;;;2.60;;
7657;SDS011;8462;53.156;8.220;2023-12-28T07:04:32;5.50;;;2.40;;
7657;SDS011;8462;53.156;8.220;2023-12-28T07:06:59;5.67;;;2.57;;
7657;SDS011;8462;53.156;8.220;2023-12-28T07:09:25;4.70;;;2.50;;
7657;SDS011;8462;53.156;8.220;2023-12-28T07:11:54;7.83;;;2.73;;
7657;SDS011;8462;53.156;8.220;2023-12-28T07:14:20;7.43;;;2.90;;
7657;SDS011;8462;53.156;8.220;2023-12-28T07:16:48;6.37;;;2.63;;
7657;SDS011;8462;53.156;8.220;2023-12-28T07:19:16;8.50;;;3.03;;
7657;SDS011;8462;53.156;8.220;2023-12-28T07:21:43;8.60;;;2.90;;
7657;SDS011;8462;53.156;8.220;2023-12-28T07:24:10;8.50;;;2.60;;
7657;SDS011;8462;53.156;8.220;2023-12-28T07:26:37;5.90;;;2.07;;
7657;SDS011;8462;53.156;8.220;2023-12-28T07:29:04;4.73;;;2.27;;
7657;SDS011;8462;53.156;8.220;2023-12-28T07:31:31;6.13;;;3.10;;
7657;SDS011;8462;53.156;8.220;2023-12-28T07:33:58;6.93;;;3.33;;
7657;SDS011;8462;53.156;8.220;2023-12-28T07:36:26;11.60;;;2.60;;
7657;SDS011;8462;53.156;8.220;2023-12-28T07:38:53;7.43;;;2.80;;
7657;SDS011;8462;53.156;8.220;2023-12-28T07:41:20;5.83;;;2.33;;
7657;SDS011;8462;53.156;8.220;2023-12-28T07:43:47;6.30;;;2.90;;
7657;SDS011;8462;53.156;8.220;2023-12-28T07:46:14;6.93;;;3.20;;
7657;SDS011;8462;53.156;8.220;2023-12-28T07:48:41;7.93;;;3.07;;
7657;SDS011;8462;53.156;8.220;2023-12-28T07:51:08;7.03;;;2.60;;
7657;SDS011;8462;53.156;8.220;2023-12-28T07:53:36;7.27;;;2.97;;
7657;SDS011;8462;53.156;8.220;2023-12-28T07:56:04;5.83;;;2.03;;
7657;SDS011;8462;53.156;8.220;2023-12-28T07:58:31;9.10;;;2.83;;
7657;SDS011;8462;53.156;8.220;2023-12-28T08:00:58;7.73;;;3.07;;
7657;SDS011;8462;53.156;8.220;2023-12-28T08:03:25;4.87;;;2.47;;
7657;SDS011;8462;53.156;8.220;2023-12-28T08:05:52;6.60;;;2.73;;
7657;SDS011;8462;53.156;8.220;2023-12-28T08:08:19;4.30;;;2.00;;
7657;SDS011;8462;53.156;8.220;2023-12-28T08:10:48;6.67;;;2.17;;
7657;SDS011;8462;53.156;8.220;2023-12-28T08:13:16;8.73;;;3.27;;
7657;SDS011;8462;53.156;8.220;2023-12-28T08:15:44;7.93;;;2.37;;
7657;SDS011;8462;53.156;8.220;2023-12-28T08:18:11;7.10;;;2.93;;
7657;SDS011;8462;53.156;8.220;2023-12-28T08:20:38;6.50;;;2.80;;
7657;SDS011;8462;53.156;8.220;2023-12-28T08:23:05;9.23;;;2.53;;
7657;SDS011;8462;53.156;8.220;2023-12-28T08:25:32;8.87;;;2.67;;
7657;SDS011;8462;53.156;8.220;2023-12-28T08:28:02;5.60;;;2.20;;
7657;SDS011;8462;53.156;8.220;2023-12-28T08:30:29;5.80;;;2.57;;
7657;SDS011;8462;53.156;8.220;2023-12-28T08:32:56;10.20;;;2.67;;
7657;SDS011;8462;53.156;8.220;2023-12-28T08:35:24;11.37;;;2.87;;
7657;SDS011;8462;53.156;8.220;2023-12-28T08:37:51;6.57;;;2.67;;
7657;SDS011;8462;53.156;8.220;2023-12-28T08:40:18;6.30;;;2.13;;
7657;SDS011;8462;53.156;8.220;2023-12-28T08:42:45;7.87;;;2.60;;
7657;SDS011;8462;53.156;8.220;2023-12-28T08:45:15;8.47;;;3.13;;
7657;SDS011;8462;53.156;8.220;2023-12-28T08:47:42;7.93;;;2.57;;
7657;SDS011;8462;53.156;8.220;2023-12-28T08:50:09;11.73;;;2.97;;
7657;SDS011;8462;53.156;8.220;2023-12-28T08:52:36;14.27;;;3.77;;
7657;SDS011;8462;53.156;8.220;2023-12-28T08:55:04;13.63;;;3.83;;
7657;SDS011;8462;53.156;8.220;2023-12-28T08:57:31;8.17;;;3.13;;
7657;SDS011;8462;53.156;8.220;2023-12-28T08:59:58;25.23;;;4.73;;
7657;SDS011;8462;53.156;8.220;2023-12-28T09:02:29;13.03;;;3.97;;
7657;SDS011;8462;53.156;8.220;2023-12-28T09:04:57;10.10;;;2.90;;
7657;SDS011;8462;53.156;8.220;2023-12-28T09:07:26;13.83;;;2.93;;
7657;SDS011;8462;53.156;8.220;2023-12-28T09:09:53;13.67;;;3.00;;
7657;SDS011;8462;53.156;8.220;2023-12-28T09:12:20;9.27;;;2.60;;
7657;SDS011;8462;53.156;8.220;2023-12-28T09:14:48;6.43;;;2.40;;
7657;SDS011;8462;53.156;8.220;2023-12-28T09:17:17;10.07;;;2.97;;
7657;SDS011;8462;53.156;8.220;2023-12-28T09:19:46;14.33;;;3.80;;
7657;SDS011;8462;53.156;8.220;2023-12-28T09:22:13;11.63;;;3.10;;
7657;SDS011;8462;53.156;8.220;2023-12-28T09:24:40;11.33;;;2.77;;
7657;SDS011;8462;53.156;8.220;2023-12-28T09:27:07;7.27;;;2.60;;
7657;SDS011;8462;53.156;8.220;2023-12-28T09:29:35;9.80;;;3.10;;
7657;SDS011;8462;53.156;8.220;2023-12-28T09:32:02;10.40;;;2.83;;
7657;SDS011;8462;53.156;8.220;2023-12-28T09:34:29;10.20;;;2.43;;
7657;SDS011;8462;53.156;8.220;2023-12-28T09:36:58;17.73;;;3.70;;
7657;SDS011;8462;53.156;8.220;2023-12-28T09:39:24;10.73;;;3.27;;
7657;SDS011;8462;53.156;8.220;2023-12-28T09:41:54;12.93;;;3.80;;
7657;SDS011;8462;53.156;8.220;2023-12-28T09:44:25;9.47;;;2.57;;
7657;SDS011;8462;53.156;8.220;2023-12-28T09:46:54;8.60;;;2.63;;
7657;SDS011;8462;53.156;8.220;2023-12-28T09:49:22;11.80;;;2.93;;
7657;SDS011;8462;53.156;8.220;2023-12-28T09:51:49;12.17;;;3.53;;
7657;SDS011;8462;53.156;8.220;2023-12-28T09:54:18;10.03;;;2.70;;
7657;SDS011;8462;53.156;8.220;2023-12-28T09:56:45;13.80;;;3.47;;
7657;SDS011;8462;53.156;8.220;2023-12-28T09:59:12;8.83;;;3.10;;
7657;SDS011;8462;53.156;8.220;2023-12-28T10:01:41;12.60;;;3.40;;
7657;SDS011;8462;53.156;8.220;2023-12-28T10:04:09;12.63;;;3.10;;
7657;SDS011;8462;53.156;8.220;2023-12-28T10:06:36;11.90;;;3.77;;
7657;SDS011;8462;53.156;8.220;2023-12-28T10:09:03;14.20;;;4.03;;
7657;SDS011;8462;53.156;8.220;2023-12-28T10:11:34;10.83;;;3.53;;
7657;SDS011;8462;53.156;8.220;2023-12-28T10:14:01;13.13;;;4.00;;
7657;SDS011;8462;53.156;8.220;2023-12-28T10:16:30;9.90;;;3.20;;
7657;SDS011;8462;53.156;8.220;2023-12-28T10:18:58;11.20;;;3.10;;
7657;SDS011;8462;53.156;8.220;2023-12-28T10:21:25;8.97;;;3.23;;
7657;SDS011;8462;53.156;8.220;2023-12-28T10:23:52;13.00;;;3.23;;
7657;SDS011;8462;53.156;8.220;2023-12-28T10:26:20;13.40;;;3.30;;
7657;SDS011;8462;53.156;8.220;2023-12-28T10:28:50;11.70;;;3.70;;
7657;SDS011;8462;53.156;8.220;2023-12-28T10:31:25;8.70;;;3.20;;
7657;SDS011;8462;53.156;8.220;2023-12-28T10:33:54;9.90;;;3.40;;
7657;SDS011;8462;53.156;8.220;2023-12-28T10:36:24;10.97;;;2.90;;
7657;SDS011;8462;53.156;8.220;2023-12-28T10:38:53;10.17;;;3.40;;
7657;SDS011;8462;53.156;8.220;2023-12-28T10:41:22;8.50;;;3.20;;
7657;SDS011;8462;53.156;8.220;2023-12-28T10:43:53;24.33;;;4.57;;
7657;SDS011;8462;53.156;8.220;2023-12-28T10:46:30;15.50;;;3.60;;
7657;SDS011;8462;53.156;8.220;2023-12-28T10:48:59;10.23;;;3.53;;
7657;SDS011;8462;53.156;8.220;2023-12-28T10:51:32;13.33;;;3.63;;
7657;SDS011;8462;53.156;8.220;2023-12-28T10:54:03;13.97;;;3.60;;
7657;SDS011;8462;53.156;8.220;2023-12-28T10:56:41;14.40;;;3.23;;
7657;SDS011;8462;53.156;8.220;2023-12-28T10:59:16;11.60;;;3.73;;
7657;SDS011;8462;53.156;8.220;2023-12-28T11:01:51;10.10;;;2.90;;
7657;SDS011;8462;53.156;8.220;2023-12-28T11:04:22;10.60;;;3.33;;
7657;SDS011;8462;53.156;8.220;2023-12-28T11:06:55;10.03;;;3.30;;
7657;SDS011;8462;53.156;8.220;2023-12-28T11:09:24;11.07;;;3.33;;
7657;SDS011;8462;53.156;8.220;2023-12-28T11:11:52;14.37;;;3.23;;
7657;SDS011;8462;53.156;8.220;2023-12-28T11:14:26;9.20;;;3.23;;
7657;SDS011;8462;53.156;8.220;2023-12-28T11:16:54;12.73;;;3.30;;
7657;SDS011;8462;53.156;8.220;2023-12-28T11:19:25;11.53;;;2.87;;
7657;SDS011;8462;53.156;8.220;2023-12-28T11:21:53;10.87;;;3.40;;
7657;SDS011;8462;53.156;8.220;2023-12-28T11:24:23;9.50;;;3.30;;
7657;SDS011;8462;53.156;8.220;2023-12-28T11:26:52;10.60;;;3.13;;
7657;SDS011;8462;53.156;8.220;2023-12-28T11:29:21;9.90;;;3.00;;
7657;SDS011;8462;53.156;8.220;2023-12-28T11:31:51;10.43;;;3.87;;
7657;SDS011;8462;53.156;8.220;2023-12-28T11:34:19;11.17;;;3.60;;
7657;SDS011;8462;53.156;8.220;2023-12-28T11:36:52;10.77;;;3.50;;
7657;SDS011;8462;53.156;8.220;2023-12-28T11:39:26;13.07;;;3.53;;
7657;SDS011;8462;53.156;8.220;2023-12-28T11:42:00;12.87;;;3.67;;
7657;SDS011;8462;53.156;8.220;2023-12-28T11:44:29;11.83;;;3.27;;
7657;SDS011;8462;53.156;8.220;2023-12-28T11:46:58;8.57;;;2.90;;
7657;SDS011;8462;53.156;8.220;2023-12-28T11:49:26;15.63;;;3.53;;
7657;SDS011;8462;53.156;8.220;2023-12-28T11:51:55;9.70;;;3.07;;
7657;SDS011;8462;53.156;8.220;2023-12-28T11:54:24;11.43;;;3.00;;
7657;SDS011;8462;53.156;8.220;2023-12-28T11:56:51;9.50;;;3.53;;
7657;SDS011;8462;53.156;8.220;2023-12-28T11:59:21;9.83;;;3.50;;
7657;SDS011;8462;53.156;8.220;2023-12-28T12:01:51;8.03;;;3.30;;
7657;SDS011;8462;53.156;8.220;2023-12-28T12:04:20;17.87;;;3.67;;
7657;SDS011;8462;53.156;8.220;2023-12-28T12:06:47;13.17;;;3.73;;
7657;SDS011;8462;53.156;8.220;2023-12-28T12:09:15;9.43;;;3.37;;
7657;SDS011;8462;53.156;8.220;2023-12-28T12:11:43;12.17;;;3.20;;
7657;SDS011;8462;53.156;8.220;2023-12-28T12:14:10;11.23;;;3.43;;
7657;SDS011;8462;53.156;8.220;2023-12-28T12:16:38;8.67;;;3.03;;
7657;SDS011;8462;53.156;8.220;2023-12-28T12:19:05;13.33;;;3.50;;
7657;SDS011;8462;53.156;8.220;2023-12-28T12:21:34;10.47;;;3.03;;
7657;SDS011;8462;53.156;8.220;2023-12-28T12:24:01;9.40;;;2.80;;
7657;SDS011;8462;53.156;8.220;2023-12-28T12:26:30;16.20;;;3.57;;
7657;SDS011;8462;53.156;8.220;2023-12-28T12:28:57;13.23;;;4.17;;
7657;SDS011;8462;53.156;8.220;2023-12-28T12:31:24;17.60;;;3.83;;
7657;SDS011;8462;53.156;8.220;2023-12-28T12:33:51;11.20;;;3.43;;
7657;SDS011;8462;53.156;8.220;2023-12-28T12:36:18;11.50;;;3.47;;
7657;SDS011;8462;53.156;8.220;2023-12-28T12:38:47;13.53;;;3.63;;
7657;SDS011;8462;53.156;8.220;2023-12-28T12:41:14;8.83;;;3.47;;
7657;SDS011;8462;53.156;8.220;2023-12-28T12:43:41;12.00;;;3.53;;
7657;SDS011;8462;53.156;8.220;2023-12-28T12:46:09;12.07;;;3.77;;
7657;SDS011;8462;53.156;8.220;2023-12-28T12:48:36;13.67;;;3.47;;
7657;SDS011;8462;53.156;8.220;2023-12-28T12:51:03;12.57;;;3.37;;
7657;SDS011;8462;53.156;8.220;2023-12-28T12:53:33;13.67;;;3.73;;
7657;SDS011;8462;53.156;8.220;2023-12-28T12:56:02;15.30;;;3.63;;
7657;SDS011;8462;53.156;8.220;2023-12-28T12:58:30;13.77;;;3.73;;
7657;SDS011;8462;53.156;8.220;2023-12-28T13:00:58;12.17;;;3.20;;
7657;SDS011;8462;53.156;8.220;2023-12-28T13:03:27;10.50;;;3.40;;
7657;SDS011;8462;53.156;8.220;2023-12-28T13:05:55;13.60;;;3.63;;
7657;SDS011;8462;53.156;8.220;2023-12-28T13:08:22;14.47;;;4.27;;
7657;SDS011;8462;53.156;8.220;2023-12-28T13:10:50;11.03;;;3.57;;
7657;SDS011;8462;53.156;8.220;2023-12-28T13:13:19;10.07;;;3.33;;
7657;SDS011;8462;53.156;8.220;2023-12-28T13:15:46;10.90;;;3.53;;
7657;SDS011;8462;53.156;8.220;2023-12-28T13:18:13;11.67;;;3.30;;
7657;SDS011;8462;53.156;8.220;2023-12-28T13:20:41;14.63;;;3.67;;
7657;SDS011;8462;53.156;8.220;2023-12-28T13:23:09;11.67;;;4.03;;
7657;SDS011;8462;53.156;8.220;2023-12-28T13:25:39;12.47;;;3.23;;
7657;SDS011;8462;53.156;8.220;2023-12-28T13:28:07;12.70;;;3.57;;
7657;SDS011;8462;53.156;8.220;2023-12-28T13:30:38;17.13;;;3.97;;
7657;SDS011;8462;53.156;8.220;2023-12-28T13:33:06;7.43;;;3.07;;
7657;SDS011;8462;53.156;8.220;2023-12-28T13:35:34;10.83;;;3.27;;
7657;SDS011;8462;53.156;8.220;2023-12-28T13:38:02;16.53;;;3.90;;
7657;SDS011;8462;53.156;8.220;2023-12-28T13:40:31;14.40;;;4.00;;
7657;SDS011;8462;53.156;8.220;2023-12-28T13:42:58;12.97;;;3.50;;
7657;SDS011;8462;53.156;8.220;2023-12-28T13:45:25;9.73;;;3.23;;
7657;SDS011;8462;53.156;8.220;2023-12-28T13:47:55;14.07;;;4.43;;
7657;SDS011;8462;53.156;8.220;2023-12-28T13:50:24;14.73;;;3.07;;
7657;SDS011;8462;53.156;8.220;2023-12-28T13:52:52;19.73;;;4.50;;
7657;SDS011;8462;53.156;8.220;2023-12-28T13:55:19;11.07;;;3.03;;
7657;SDS011;8462;53.156;8.220;2023-12-28T13:57:47;12.97;;;3.37;;
7657;SDS011;8462;53.156;8.220;2023-12-28T14:00:15;17.27;;;3.60;;
7657;SDS011;8462;53.156;8.220;2023-12-28T14:02:43;11.33;;;3.60;;
7657;SDS011;8462;53.156;8.220;2023-12-28T14:05:11;12.13;;;4.10;;
7657;SDS011;8462;53.156;8.220;2023-12-28T14:10:09;11.03;;;3.30;;
7657;SDS011;8462;53.156;8.220;2023-12-28T14:12:37;12.67;;;4.03;;
7657;SDS011;8462;53.156;8.220;2023-12-28T14:15:04;12.70;;;3.33;;
7657;SDS011;8462;53.156;8.220;2023-12-28T14:17:35;12.33;;;4.23;;
7657;SDS011;8462;53.156;8.220;2023-12-28T14:20:02;11.10;;;3.33;;
7657;SDS011;8462;53.156;8.220;2023-12-28T14:22:32;14.90;;;3.87;;
7657;SDS011;8462;53.156;8.220;2023-12-28T14:25:01;15.00;;;3.90;;
7657;SDS011;8462;53.156;8.220;2023-12-28T14:27:29;9.07;;;3.00;;
7657;SDS011;8462;53.156;8.220;2023-12-28T14:29:58;10.83;;;3.83;;
7657;SDS011;8462;53.156;8.220;2023-12-28T14:32:31;13.17;;;3.87;;
7657;SDS011;8462;53.156;8.220;2023-12-28T14:34:58;13.03;;;3.53;;
7657;SDS011;8462;53.156;8.220;2023-12-28T14:37:28;15.03;;;3.60;;
7657;SDS011;8462;53.156;8.220;2023-12-28T14:39:57;15.40;;;3.43;;
7657;SDS011;8462;53.156;8.220;2023-12-28T14:42:27;10.53;;;3.33;;
7657;SDS011;8462;53.156;8.220;2023-12-28T14:44:54;14.87;;;3.87;;
7657;SDS011;8462;53.156;8.220;2023-12-28T14:47:22;18.47;;;4.03;;
7657;SDS011;8462;53.156;8.220;2023-12-28T14:49:49;15.13;;;3.40;;
7657;SDS011;8462;53.156;8.220;2023-12-28T14:52:18;12.07;;;4.17;;
7657;SDS011;8462;53.156;8.220;2023-12-28T14:54:45;14.07;;;3.53;;
7657;SDS011;8462;53.156;8.220;2023-12-28T14:57:13;13.20;;;4.30;;
7657;SDS011;8462;53.156;8.220;2023-12-28T14:59:43;9.80;;;3.67;;
7657;SDS011;8462;53.156;8.220;2023-12-28T15:02:11;11.90;;;3.43;;
7657;SDS011;8462;53.156;8.220;2023-12-28T15:04:38;9.37;;;3.43;;
7657;SDS011;8462;53.156;8.220;2023-12-28T15:07:07;16.50;;;4.03;;
7657;SDS011;8462;53.156;8.220;2023-12-28T15:09:34;11.67;;;3.87;;
7657;SDS011;8462;53.156;8.220;2023-12-28T15:12:01;10.33;;;3.13;;
7657;SDS011;8462;53.156;8.220;2023-12-28T15:14:31;14.80;;;3.57;;
7657;SDS011;8462;53.156;8.220;2023-12-28T15:17:02;11.73;;;3.67;;